Time;durP1;ratioP1;P1;durP2;ratioP2;P2;SDS_P1;SDS_P2;PMS_P1;PMS_P2;Temp;Humidity;BMP_temperature;BMP_pressure;BME280_temperature;BME280_humidity;BME280_pressure;Samples;Min_cycle;Max_cycle;Signal;HPM_P1;HPM_P2
2021/09/12 00:00:14;;;;;;;13.55;9.55;;;;;;;;;;5070848;28;20048;-69
2021/09/12 00:03:19;;;;;;;10.90;9.10;;;;;;;;;;5070633;28;20039;-69
2021/09/12 00:06:23;;;;;;;12.45;7.97;;;;;;;;;;5070455;28;20047;-70
2021/09/12 00:09:28;;;;;;;16.42;8.70;;;;;;;;;;5070898;28;20524;-70
2021/09/12 00:12:32;;;;;;;15.52;8.75;;;;;;;;;;5070564;28;20040;-70
2021/09/12 00:15:36;;;;;;;20.70;9.23;;;;;;;;;;5074520;28;20037;-69
2021/09/12 00:18:41;;;;;;;32.75;10.43;;;;;;;;;;5073493;28;20055;-69
2021/09/12 00:21:45;;;;;;;32.35;10.52;;;;;;;;;;5074308;28;20040;-70
2021/09/12 00:24:59;;;;;;;18.20;8.95;;;;;;;;;;5074360;28;20503;-70
2021/09/12 00:28:03;;;;;;;14.15;9.63;;;;;;;;;;5074456;28;20029;-70
2021/09/12 00:31:09;;;;;;;19.40;10.27;;;;;;;;;;5074335;28;20071;-70
2021/09/12 00:34:13;;;;;;;23.40;9.63;;;;;;;;;;5074151;28;20040;-69
2021/09/12 00:37:17;;;;;;;14.93;10.73;;;;;;;;;;5073926;28;20044;-69
2021/09/12 00:40:22;;;;;;;16.63;8.98;;;;;;;;;;5074486;28;20063;-70
2021/09/12 00:43:27;;;;;;;13.25;9.15;;;;;;;;;;5073509;28;20043;-68
2021/09/12 00:46:31;;;;;;;12.25;9.32;;;;;;;;;;5073963;28;20044;-68
2021/09/12 00:49:35;;;;;;;13.73;9.35;;;;;;;;;;5073036;28;20040;-70
2021/09/12 00:52:41;;;;;;;12.98;8.70;;;;;;;;;;5073536;28;20041;-69
2021/09/12 00:55:45;;;;;;;13.38;9.07;;;;;;;;;;5072881;28;20526;-69
2021/09/12 00:58:51;;;;;;;15.57;9.50;;;;;;;;;;5061328;28;20057;-70
2021/09/12 01:01:55;;;;;;;14.18;9.63;;;;;;;;;;5073360;28;20033;-69
2021/09/12 01:05:00;;;;;;;14.10;9.32;;;;;;;;;;5073499;28;20053;-70
2021/09/12 01:08:05;;;;;;;16.23;10.15;;;;;;;;;;5073214;28;20230;-69
2021/09/12 01:11:09;;;;;;;13.82;9.98;;;;;;;;;;5073520;28;20047;-70
2021/09/12 01:14:14;;;;;;;15.48;10.18;;;;;;;;;;5073599;28;20040;-70
2021/09/12 01:17:18;;;;;;;15.25;10.65;;;;;;;;;;5072677;28;20047;-70
2021/09/12 01:20:22;;;;;;;15.15;10.15;;;;;;;;;;5073301;28;20063;-69
2021/09/12 01:23:27;;;;;;;16.05;10.13;;;;;;;;;;5073086;28;20048;-70
2021/09/12 01:26:31;;;;;;;11.90;9.27;;;;;;;;;;5072088;28;20403;-69
2021/09/12 01:29:36;;;;;;;15.80;10.02;;;;;;;;;;5073191;28;20037;-69
2021/09/12 01:32:40;;;;;;;16.48;10.63;;;;;;;;;;5073429;28;20205;-69
2021/09/12 01:35:44;;;;;;;17.52;10.75;;;;;;;;;;5072838;28;20043;-69
2021/09/12 01:38:49;;;;;;;11.93;10.38;;;;;;;;;;5072953;28;20060;-69
2021/09/12 01:41:53;;;;;;;16.00;10.95;;;;;;;;;;5072740;28;20043;-69
2021/09/12 01:44:57;;;;;;;16.13;11.25;;;;;;;;;;5060491;28;20059;-69
2021/09/12 01:48:02;;;;;;;16.05;10.95;;;;;;;;;;5072855;28;20048;-69
2021/09/12 01:51:06;;;;;;;15.35;10.82;;;;;;;;;;5072495;28;20044;-70
2021/09/12 01:54:10;;;;;;;18.02;10.70;;;;;;;;;;5072600;28;20040;-69
2021/09/12 01:57:14;;;;;;;15.50;10.70;;;;;;;;;;5072412;28;20044;-69
2021/09/12 02:00:19;;;;;;;19.80;13.68;;;;;;;;;;5071731;28;20043;-69
2021/09/12 02:03:24;;;;;;;18.65;12.50;;;;;;;;;;5072285;28;20039;-68
2021/09/12 02:06:28;;;;;;;24.98;15.23;;;;;;;;;;5072220;28;20051;-68
2021/09/12 02:09:32;;;;;;;28.05;16.20;;;;;;;;;;5072635;28;20035;-69
2021/09/12 02:12:37;;;;;;;24.42;15.73;;;;;;;;;;5072577;28;20041;-69
2021/09/12 02:15:41;;;;;;;21.58;16.00;;;;;;;;;;5072134;28;20479;-69
2021/09/12 02:18:46;;;;;;;19.60;13.48;;;;;;;;;;5072109;28;20059;-69
2021/09/12 02:21:50;;;;;;;18.73;12.20;;;;;;;;;;5072286;28;20035;-69
2021/09/12 02:24:54;;;;;;;22.83;12.52;;;;;;;;;;5072094;28;20043;-69
2021/09/12 02:27:58;;;;;;;17.52;12.65;;;;;;;;;;5072228;28;20135;-68
2021/09/12 02:31:03;;;;;;;17.65;12.05;;;;;;;;;;5071019;28;20048;-68
2021/09/12 02:34:07;;;;;;;21.92;14.10;;;;;;;;;;5071813;28;20052;-68
2021/09/12 02:37:11;;;;;;;19.85;13.05;;;;;;;;;;5070747;28;20043;-68
2021/09/12 02:40:16;;;;;;;17.73;13.05;;;;;;;;;;5071791;28;20051;-69
2021/09/12 02:43:20;;;;;;;19.80;13.68;;;;;;;;;;5071643;28;20103;-69
2021/09/12 02:46:24;;;;;;;20.70;13.00;;;;;;;;;;5071624;28;20039;-69
2021/09/12 02:49:29;;;;;;;17.15;11.48;;;;;;;;;;5071544;28;20059;-69
2021/09/12 02:52:35;;;;;;;20.70;12.70;;;;;;;;;;5071581;28;20107;-69
2021/09/12 02:55:39;;;;;;;26.52;15.48;;;;;;;;;;5071507;28;20142;-69
2021/09/12 02:58:44;;;;;;;27.38;17.25;;;;;;;;;;5071292;28;20055;-69
2021/09/12 03:01:48;;;;;;;28.67;19.30;;;;;;;;;;5071375;28;20040;-69
2021/09/12 03:04:54;;;;;;;38.00;20.20;;;;;;;;;;5071372;28;20039;-68
2021/09/12 03:07:58;;;;;;;35.67;19.05;;;;;;;;;;5070378;28;20062;-69
2021/09/12 03:11:02;;;;;;;27.58;17.92;;;;;;;;;;5071129;28;20039;-69
2021/09/12 03:14:07;;;;;;;24.73;17.17;;;;;;;;;;5071495;28;20039;-68
2021/09/12 03:17:11;;;;;;;24.23;18.00;;;;;;;;;;5071102;28;20039;-69
2021/09/12 03:20:16;;;;;;;26.50;17.88;;;;;;;;;;5071135;28;20051;-69
2021/09/12 03:23:20;;;;;;;31.98;18.20;;;;;;;;;;5071041;28;20044;-67
2021/09/12 03:26:24;;;;;;;16.88;13.27;;;;;;;;;;5071161;28;20601;-68
2021/09/12 03:29:29;;;;;;;22.98;15.18;;;;;;;;;;5071109;28;20055;-68
2021/09/12 03:32:33;;;;;;;18.02;14.55;;;;;;;;;;5070997;28;20039;-69
2021/09/12 03:35:37;;;;;;;19.90;15.30;;;;;;;;;;5071170;28;20391;-68
2021/09/12 03:38:42;;;;;;;19.58;15.48;;;;;;;;;;5070028;28;20047;-69
2021/09/12 03:41:46;;;;;;;27.05;14.82;;;;;;;;;;5070731;28;20040;-70
2021/09/12 03:44:50;;;;;;;28.25;15.70;;;;;;;;;;5070867;28;20052;-69
2021/09/12 03:47:54;;;;;;;25.00;15.90;;;;;;;;;;5071007;28;20435;-69
2021/09/12 03:50:59;;;;;;;27.85;15.32;;;;;;;;;;5073971;28;20040;-69
2021/09/12 03:54:03;;;;;;;27.83;14.40;;;;;;;;;;5074860;28;20043;-69
2021/09/12 03:57:07;;;;;;;22.88;14.77;;;;;;;;;;5074998;28;20039;-69
2021/09/12 04:00:12;;;;;;;25.05;15.32;;;;;;;;;;5074677;28;20039;-69
2021/09/12 04:03:19;;;;;;;20.65;14.50;;;;;;;;;;5074656;28;20039;-69
2021/09/12 04:06:23;;;;;;;21.30;14.05;;;;;;;;;;5074547;28;20063;-69
2021/09/12 04:09:27;;;;;;;19.90;14.00;;;;;;;;;;5074677;28;20040;-69
2021/09/12 04:12:32;;;;;;;20.63;13.95;;;;;;;;;;5074555;28;20043;-69
2021/09/12 04:15:36;;;;;;;18.65;12.88;;;;;;;;;;5074477;28;20059;-69
2021/09/12 04:18:40;;;;;;;19.67;13.40;;;;;;;;;;5074269;28;20056;-69
2021/09/12 04:21:45;;;;;;;20.90;12.93;;;;;;;;;;5073637;28;20038;-69
2021/09/12 04:24:49;;;;;;;15.55;12.63;;;;;;;;;;5074637;28;20748;-69
2021/09/12 04:27:53;;;;;;;20.88;11.73;;;;;;;;;;5074354;28;20039;-69
2021/09/12 04:30:57;;;;;;;15.65;11.60;;;;;;;;;;5074286;28;20048;-69
2021/09/12 04:34:02;;;;;;;17.92;12.27;;;;;;;;;;5074366;28;20043;-69
2021/09/12 04:37:06;;;;;;;18.75;11.85;;;;;;;;;;5073984;28;20511;-69
2021/09/12 04:40:11;;;;;;;20.23;11.82;;;;;;;;;;5074369;28;20499;-69
2021/09/12 04:43:15;;;;;;;16.73;11.98;;;;;;;;;;5074001;28;20419;-69
2021/09/12 04:46:19;;;;;;;21.00;12.10;;;;;;;;;;5073945;28;20043;-69
2021/09/12 04:49:23;;;;;;;20.63;11.52;;;;;;;;;;5074211;28;20400;-69
2021/09/12 04:52:28;;;;;;;18.80;11.57;;;;;;;;;;5073721;28;20043;-69
2021/09/12 04:55:32;;;;;;;28.85;12.20;;;;;;;;;;5073768;28;20043;-69
2021/09/12 04:58:37;;;;;;;28.88;12.30;;;;;;;;;;5073488;28;20404;-69
2021/09/12 05:01:41;;;;;;;33.70;12.07;;;;;;;;;;5073661;28;20047;-69
2021/09/12 05:04:45;;;;;;;21.70;11.35;;;;;;;;;;5073569;28;20047;-69
2021/09/12 05:07:50;;;;;;;21.05;11.82;;;;;;;;;;5073339;28;20059;-69
2021/09/12 05:10:54;;;;;;;15.55;11.32;;;;;;;;;;5073464;28;20043;-69
2021/09/12 05:13:58;;;;;;;15.85;10.93;;;;;;;;;;5072493;28;20044;-69
2021/09/12 05:17:03;;;;;;;16.00;11.05;;;;;;;;;;5073472;28;20035;-69
2021/09/12 05:20:07;;;;;;;24.58;11.48;;;;;;;;;;5073442;28;20043;-69
2021/09/12 05:23:11;;;;;;;22.15;10.85;;;;;;;;;;5072790;28;20044;-67
2021/09/12 05:26:16;;;;;;;17.13;10.32;;;;;;;;;;5072980;28;20392;-69
2021/09/12 05:29:23;;;;;;;17.80;10.32;;;;;;;;;;5073080;28;20057;-70
2021/09/12 05:32:27;;;;;;;11.82;9.75;;;;;;;;;;5073062;28;20067;-68
2021/09/12 05:35:31;;;;;;;17.20;9.27;;;;;;;;;;5072911;28;20096;-65
2021/09/12 05:38:35;;;;;;;15.70;9.30;;;;;;;;;;5073045;28;20534;-69
2021/09/12 05:41:39;;;;;;;14.85;10.27;;;;;;;;;;5072950;28;20028;-69
2021/09/12 05:44:43;;;;;;;18.40;9.55;;;;;;;;;;5072954;28;20507;-69
2021/09/12 05:47:48;;;;;;;14.45;9.75;;;;;;;;;;5072652;28;20052;-70
2021/09/12 05:50:52;;;;;;;20.42;14.73;;;;;;;;;;5072748;28;20033;-71
2021/09/12 05:53:56;;;;;;;33.65;23.35;;;;;;;;;;5073095;28;20040;-70
2021/09/12 05:57:01;;;;;;;42.10;28.80;;;;;;;;;;5071841;28;20040;-70
2021/09/12 06:00:06;;;;;;;41.25;27.05;;;;;;;;;;5072901;28;20063;-70
2021/09/12 06:03:10;;;;;;;39.53;25.05;;;;;;;;;;5071890;28;20039;-71
2021/09/12 06:06:15;;;;;;;34.08;23.58;;;;;;;;;;5071047;28;20047;-70
2021/09/12 06:09:19;;;;;;;37.92;23.77;;;;;;;;;;5072230;28;20036;-71
2021/09/12 06:12:24;;;;;;;35.17;22.75;;;;;;;;;;5071865;28;20040;-71
2021/09/12 06:15:28;;;;;;;32.65;22.08;;;;;;;;;;5071984;28;20503;-71
2021/09/12 06:18:34;;;;;;;29.50;19.98;;;;;;;;;;5072190;28;20055;-71
2021/09/12 06:21:38;;;;;;;20.08;15.63;;;;;;;;;;5072117;28;20403;-71
2021/09/12 06:24:43;;;;;;;23.98;13.70;;;;;;;;;;5072362;28;20142;-71
2021/09/12 06:27:47;;;;;;;21.15;14.00;;;;;;;;;;5072074;28;20039;-71
2021/09/12 06:30:52;;;;;;;24.38;14.98;;;;;;;;;;5071880;28;20258;-71
2021/09/12 06:33:56;;;;;;;25.00;16.98;;;;;;;;;;5071357;28;20055;-71
2021/09/12 06:37:00;;;;;;;25.13;16.88;;;;;;;;;;5071938;28;20044;-71
2021/09/12 06:40:05;;;;;;;24.05;15.20;;;;;;;;;;5071801;28;20051;-71
2021/09/12 06:43:09;;;;;;;18.33;13.23;;;;;;;;;;5071749;28;20086;-71
2021/09/12 06:46:13;;;;;;;23.95;12.98;;;;;;;;;;5071731;28;20047;-71
2021/09/12 06:49:18;;;;;;;21.83;12.32;;;;;;;;;;5071646;28;20572;-71
2021/09/12 06:52:22;;;;;;;17.40;10.88;;;;;;;;;;5070761;28;20052;-70
2021/09/12 06:55:26;;;;;;;13.30;10.10;;;;;;;;;;5071520;28;20388;-70
2021/09/12 06:58:31;;;;;;;13.00;10.77;;;;;;;;;;5071449;28;20059;-70
2021/09/12 07:01:36;;;;;;;14.27;9.52;;;;;;;;;;5071201;28;20039;-71
2021/09/12 07:04:40;;;;;;;15.15;9.98;;;;;;;;;;5071740;28;20047;-70
2021/09/12 07:07:45;;;;;;;22.73;9.18;;;;;;;;;;5071154;28;20526;-71
2021/09/12 07:10:49;;;;;;;14.95;9.10;;;;;;;;;;5071159;28;20060;-71
2021/09/12 07:13:53;;;;;;;12.77;8.75;;;;;;;;;;5071362;28;20041;-70
2021/09/12 07:16:58;;;;;;;15.23;9.50;;;;;;;;;;5071278;28;20044;-71
2021/09/12 07:20:03;;;;;;;16.40;9.43;;;;;;;;;;5071130;28;20051;-70
2021/09/12 07:23:08;;;;;;;14.90;9.18;;;;;;;;;;5070110;28;20040;-70
2021/09/12 07:26:12;;;;;;;18.38;9.80;;;;;;;;;;5071059;28;20049;-70
2021/09/12 07:29:16;;;;;;;20.83;10.18;;;;;;;;;;5070925;28;20037;-70
2021/09/12 07:32:21;;;;;;;17.33;9.00;;;;;;;;;;5070903;28;20154;-71
2021/09/12 07:35:25;;;;;;;10.27;8.00;;;;;;;;;;5070793;28;20036;-71
2021/09/12 07:38:30;;;;;;;10.55;7.80;;;;;;;;;;5071122;28;20396;-71
2021/09/12 07:41:34;;;;;;;12.98;8.25;;;;;;;;;;5071281;28;20055;-71
2021/09/12 07:44:38;;;;;;;9.95;8.18;;;;;;;;;;5071031;28;20055;-70
2021/09/12 07:47:43;;;;;;;11.82;8.00;;;;;;;;;;5070901;28;20036;-71
2021/09/12 07:50:47;;;;;;;13.05;7.72;;;;;;;;;;5070846;28;20373;-71
2021/09/12 07:53:52;;;;;;;8.80;7.85;;;;;;;;;;5070866;28;20063;-71
2021/09/12 07:56:56;;;;;;;14.45;8.40;;;;;;;;;;5070905;28;20037;-70
2021/09/12 08:00:00;;;;;;;9.45;7.80;;;;;;;;;;5070815;28;20048;-70
2021/09/12 08:03:04;;;;;;;9.18;6.32;;;;;;;;;;5070985;28;20373;-71
2021/09/12 08:06:09;;;;;;;9.23;7.50;;;;;;;;;;5070324;28;20045;-70
2021/09/12 08:09:13;;;;;;;8.75;6.40;;;;;;;;;;5070739;28;20485;-71
2021/09/12 08:12:17;;;;;;;11.48;7.22;;;;;;;;;;5070326;28;20474;-71
2021/09/12 08:15:22;;;;;;;17.42;8.00;;;;;;;;;;5070679;28;20495;-71
2021/09/12 08:18:26;;;;;;;8.82;6.80;;;;;;;;;;5070699;28;20051;-70
2021/09/12 08:21:31;;;;;;;7.80;6.40;;;;;;;;;;5070329;28;20029;-71
2021/09/12 08:24:35;;;;;;;13.05;8.10;;;;;;;;;;5070617;28;20040;-71
2021/09/12 08:27:39;;;;;;;7.93;6.55;;;;;;;;;;5070738;28;20400;-71
2021/09/12 08:30:44;;;;;;;10.38;7.72;;;;;;;;;;5070489;28;20037;-71
2021/09/12 08:33:48;;;;;;;10.15;8.27;;;;;;;;;;5070594;28;20403;-71
2021/09/12 08:36:52;;;;;;;8.80;6.10;;;;;;;;;;5074410;28;20055;-71
2021/09/12 08:39:57;;;;;;;14.25;7.65;;;;;;;;;;5074231;28;20049;-71
2021/09/12 08:43:01;;;;;;;14.48;7.75;;;;;;;;;;5073997;28;20388;-71
2021/09/12 08:46:06;;;;;;;11.85;6.97;;;;;;;;;;5073823;28;20041;-71
2021/09/12 08:49:09;;;;;;;7.55;6.70;;;;;;;;;;5074030;28;20040;-71
2021/09/12 08:52:14;;;;;;;13.82;7.70;;;;;;;;;;5073809;28;20032;-71
2021/09/12 08:55:18;;;;;;;10.60;6.75;;;;;;;;;;5073973;28;20032;-71
2021/09/12 08:58:23;;;;;;;11.80;6.88;;;;;;;;;;5073786;28;20032;-71
2021/09/12 09:01:36;;;;;;;7.13;6.15;;;;;;;;;;5074031;28;20534;-71
2021/09/12 09:04:40;;;;;;;13.35;7.95;;;;;;;;;;5073768;28;20060;-71
2021/09/12 09:07:44;;;;;;;9.88;7.30;;;;;;;;;;5073609;28;20045;-71
2021/09/12 09:10:50;;;;;;;10.98;6.70;;;;;;;;;;5073770;28;20033;-71
2021/09/12 09:13:54;;;;;;;8.82;6.18;;;;;;;;;;5073674;28;20048;-71
2021/09/12 09:17:18;;;;;;;11.80;6.57;;;;;;;;;;5073618;28;20032;-71
2021/09/12 09:20:35;;;;;;;11.52;6.13;;;;;;;;;;5073491;28;20041;-71
2021/09/12 09:23:43;;;;;;;10.52;6.30;;;;;;;;;;5073500;28;20032;-71
2021/09/12 09:26:48;;;;;;;10.65;6.07;;;;;;;;;;5073538;28;20044;-71
2021/09/12 09:29:56;;;;;;;9.85;6.18;;;;;;;;;;5072717;28;20049;-71
2021/09/12 09:33:13;;;;;;;7.82;5.90;;;;;;;;;;5073286;28;20029;-71
2021/09/12 09:36:19;;;;;;;13.90;6.47;;;;;;;;;;5073169;28;20040;-71
2021/09/12 09:39:46;;;;;;;18.70;6.97;;;;;;;;;;5073020;28;20504;-71
2021/09/12 09:42:50;;;;;;;16.42;6.68;;;;;;;;;;5073203;28;20033;-71
2021/09/12 09:45:54;;;;;;;12.38;6.45;;;;;;;;;;5072444;28;20040;-71
2021/09/12 09:49:21;;;;;;;7.32;5.90;;;;;;;;;;5073008;28;20036;-71
2021/09/12 09:52:25;;;;;;;7.10;5.93;;;;;;;;;;5072608;28;20029;-71
2021/09/12 09:55:29;;;;;;;14.02;6.20;;;;;;;;;;5072898;28;20081;-71
2021/09/12 09:58:34;;;;;;;8.70;5.75;;;;;;;;;;5072529;28;20051;-71
2021/09/12 10:01:39;;;;;;;11.05;6.00;;;;;;;;;;5072560;28;20036;-70
2021/09/12 10:04:43;;;;;;;11.02;5.43;;;;;;;;;;5072130;28;20160;-71
2021/09/12 10:07:48;;;;;;;7.05;5.22;;;;;;;;;;5072515;28;20036;-71
2021/09/12 10:10:53;;;;;;;10.93;5.55;;;;;;;;;;5071566;28;20032;-71
2021/09/12 10:13:58;;;;;;;10.05;5.80;;;;;;;;;;5072696;28;20150;-71
2021/09/12 10:17:03;;;;;;;8.23;5.25;;;;;;;;;;5072319;28;20039;-71
2021/09/12 10:20:09;;;;;;;10.65;5.95;;;;;;;;;;5072311;28;20492;-71
2021/09/12 10:23:13;;;;;;;9.20;5.35;;;;;;;;;;5071994;28;20040;-71
2021/09/12 10:26:27;;;;;;;7.97;5.32;;;;;;;;;;5072493;28;20036;-72
2021/09/12 10:29:54;;;;;;;7.38;5.25;;;;;;;;;;5072468;28;20041;-71
2021/09/12 10:33:21;;;;;;;10.80;5.78;;;;;;;;;;5072113;28;20040;-71
2021/09/12 10:36:25;;;;;;;11.10;6.88;;;;;;;;;;5071783;28;20036;-71
2021/09/12 10:39:35;;;;;;;9.50;6.70;;;;;;;;;;5071886;28;20047;-71
2021/09/12 10:42:43;;;;;;;9.25;6.43;;;;;;;;;;5072186;28;20476;-71
2021/09/12 10:45:47;;;;;;;12.25;5.35;;;;;;;;;;5071609;28;20041;-71
2021/09/12 10:48:51;;;;;;;12.30;5.78;;;;;;;;;;5071663;28;20043;-71
2021/09/12 10:51:55;;;;;;;11.88;5.82;;;;;;;;;;5071653;28;20051;-71
2021/09/12 10:55:09;;;;;;;7.85;5.57;;;;;;;;;;5071829;28;20036;-68
2021/09/12 10:58:13;;;;;;;7.38;4.93;;;;;;;;;;5070822;28;20040;-71
2021/09/12 11:01:27;;;;;;;9.82;5.70;;;;;;;;;;5071208;28;20048;-71
2021/09/12 11:04:33;;;;;;;9.70;5.85;;;;;;;;;;5071877;28;20044;-71
2021/09/12 11:07:50;;;;;;;7.47;5.50;;;;;;;;;;5071269;28;20036;-71
2021/09/12 11:10:55;;;;;;;8.88;5.50;;;;;;;;;;5070707;28;20040;-71
2021/09/12 11:13:59;;;;;;;10.00;5.78;;;;;;;;;;5071959;28;20037;-70
2021/09/12 11:17:09;;;;;;;9.02;5.88;;;;;;;;;;5071704;28;20029;-70
2021/09/12 11:20:13;;;;;;;8.55;5.78;;;;;;;;;;5071765;28;20048;-70
2021/09/12 11:23:28;;;;;;;8.30;5.32;;;;;;;;;;5072207;28;20032;-70
2021/09/12 11:26:40;;;;;;;7.20;5.68;;;;;;;;;;5072119;28;20040;-70
2021/09/12 11:29:44;;;;;;;8.18;5.00;;;;;;;;;;5071409;28;20033;-70
2021/09/12 11:32:52;;;;;;;7.53;5.75;;;;;;;;;;5071584;28;20040;-70
2021/09/12 11:36:03;;;;;;;9.55;5.50;;;;;;;;;;5071535;28;20365;-70
2021/09/12 11:39:07;;;;;;;9.18;6.15;;;;;;;;;;5071311;28;20044;-70
2021/09/12 11:42:13;;;;;;;13.98;8.68;;;;;;;;;;5071535;28;20037;-70
2021/09/12 11:45:17;;;;;;;8.85;6.30;;;;;;;;;;5070735;28;20044;-70
2021/09/12 11:48:21;;;;;;;8.30;6.10;;;;;;;;;;5070297;28;20036;-71
2021/09/12 11:51:25;;;;;;;10.82;6.03;;;;;;;;;;5070796;28;20032;-70
2021/09/12 11:54:36;;;;;;;10.32;5.53;;;;;;;;;;5070579;28;20041;-70
2021/09/12 11:57:41;;;;;;;7.95;5.72;;;;;;;;;;5071068;28;20041;-70
2021/09/12 12:00:47;;;;;;;14.77;6.50;;;;;;;;;;5070953;28;20052;-71
2021/09/12 12:03:52;;;;;;;9.43;5.80;;;;;;;;;;5070899;28;20041;-69
2021/09/12 12:06:59;;;;;;;12.82;9.60;;;;;;;;;;5070721;28;20413;-69
2021/09/12 12:10:03;;;;;;;11.88;7.13;;;;;;;;;;5072029;28;20199;-69
2021/09/12 12:13:08;;;;;;;12.15;6.78;;;;;;;;;;5074976;28;20048;-69
2021/09/12 12:16:12;;;;;;;7.47;5.57;;;;;;;;;;5074826;28;20500;-71
2021/09/12 12:19:17;;;;;;;10.60;7.07;;;;;;;;;;5074433;28;20048;-69
2021/09/12 12:22:23;;;;;;;6.35;5.47;;;;;;;;;;5074312;28;20040;-69
2021/09/12 12:25:28;;;;;;;8.40;5.47;;;;;;;;;;5074614;28;20041;-69
2021/09/12 12:28:32;;;;;;;8.05;5.55;;;;;;;;;;5074523;28;20068;-69
2021/09/12 12:31:37;;;;;;;6.82;5.40;;;;;;;;;;5074237;28;20029;-69
2021/09/12 12:34:50;;;;;;;6.97;5.65;;;;;;;;;;5074212;28;20380;-71
2021/09/12 12:37:54;;;;;;;8.90;6.30;;;;;;;;;;5074443;28;20036;-70
2021/09/12 12:41:03;;;;;;;7.70;5.18;;;;;;;;;;5074042;28;20048;-70
2021/09/12 12:44:14;;;;;;;6.47;5.55;;;;;;;;;;5074154;28;20025;-70
2021/09/12 12:47:29;;;;;;;14.93;5.93;;;;;;;;;;5073902;28;20036;-70
2021/09/12 12:50:34;;;;;;;9.50;5.78;;;;;;;;;;5074045;28;20041;-70
2021/09/12 12:53:44;;;;;;;6.75;5.57;;;;;;;;;;5073856;28;20369;-69
2021/09/12 12:56:48;;;;;;;9.57;7.40;;;;;;;;;;5074234;28;20036;-69
2021/09/12 12:59:53;;;;;;;8.15;6.15;;;;;;;;;;5073655;28;20044;-70
2021/09/12 13:02:57;;;;;;;8.18;5.93;;;;;;;;;;5073682;28;20032;-70
2021/09/12 13:06:05;;;;;;;8.25;5.72;;;;;;;;;;5073636;28;20033;-70
2021/09/12 13:09:09;;;;;;;6.72;5.93;;;;;;;;;;5073588;28;20049;-71
2021/09/12 13:12:14;;;;;;;9.45;6.38;;;;;;;;;;5073546;28;20044;-72
2021/09/12 13:15:19;;;;;;;7.85;6.50;;;;;;;;;;5074120;28;20036;-73
2021/09/12 13:18:25;;;;;;;7.18;6.00;;;;;;;;;;5074050;28;20044;-73
2021/09/12 13:21:30;;;;;;;7.70;6.45;;;;;;;;;;5072701;28;20049;-73
2021/09/12 13:24:36;;;;;;;8.40;6.00;;;;;;;;;;5073643;28;20480;-71
2021/09/12 13:27:41;;;;;;;8.23;6.20;;;;;;;;;;5073551;28;20033;-72
2021/09/12 13:30:46;;;;;;;10.07;6.35;;;;;;;;;;5073398;28;20040;-71
2021/09/12 13:33:52;;;;;;;8.93;6.40;;;;;;;;;;5074242;28;20036;-72
2021/09/12 13:37:02;;;;;;;13.70;6.43;;;;;;;;;;5073038;28;20041;-73
2021/09/12 13:40:11;;;;;;;8.23;6.60;;;;;;;;;;5072379;28;20045;-71
2021/09/12 13:43:16;;;;;;;9.30;6.72;;;;;;;;;;5073239;28;20040;-72
2021/09/12 13:46:23;;;;;;;9.00;6.32;;;;;;;;;;5073242;28;20032;-73
2021/09/12 13:49:28;;;;;;;11.05;7.18;;;;;;;;;;5073481;28;20036;-73
2021/09/12 13:52:32;;;;;;;9.48;6.68;;;;;;;;;;5073605;28;20503;-72
2021/09/12 13:55:37;;;;;;;9.88;6.57;;;;;;;;;;5073220;28;20029;-74
2021/09/12 13:58:42;;;;;;;7.82;5.80;;;;;;;;;;5072765;28;20040;-72
2021/09/12 14:01:47;;;;;;;8.73;6.10;;;;;;;;;;5072052;28;20040;-72
2021/09/12 14:04:54;;;;;;;10.23;5.95;;;;;;;;;;5072745;28;20032;-71
2021/09/12 14:07:58;;;;;;;11.95;6.40;;;;;;;;;;5072464;28;20061;-73
2021/09/12 14:11:03;;;;;;;11.85;7.13;;;;;;;;;;5072900;28;20483;-72
2021/09/12 14:14:08;;;;;;;8.63;6.10;;;;;;;;;;5072966;28;20498;-72
2021/09/12 14:17:14;;;;;;;13.27;6.63;;;;;;;;;;5072465;28;20040;-73
2021/09/12 14:20:23;;;;;;;8.63;6.20;;;;;;;;;;5072437;28;20054;-73
2021/09/12 14:23:37;;;;;;;14.40;6.68;;;;;;;;;;5072532;28;20037;-73
2021/09/12 14:26:41;;;;;;;10.10;6.32;;;;;;;;;;5072293;28;20036;-72
2021/09/12 14:29:49;;;;;;;7.80;5.85;;;;;;;;;;5072297;28;20040;-72
2021/09/12 14:32:59;;;;;;;12.25;6.53;;;;;;;;;;5072087;28;20033;-74
2021/09/12 14:36:07;;;;;;;8.57;6.07;;;;;;;;;;5072706;28;20380;-73
2021/09/12 14:39:11;;;;;;;15.95;6.90;;;;;;;;;;5072084;28;20044;-72
2021/09/12 14:42:16;;;;;;;10.73;6.30;;;;;;;;;;5072145;28;20029;-72
2021/09/12 14:45:21;;;;;;;14.25;6.00;;;;;;;;;;5072377;28;20486;-72
2021/09/12 14:48:29;;;;;;;9.82;5.80;;;;;;;;;;5071322;28;20052;-73
2021/09/12 14:51:34;;;;;;;12.07;6.53;;;;;;;;;;5072048;28;20492;-74
2021/09/12 14:54:39;;;;;;;12.60;6.57;;;;;;;;;;5071700;28;20039;-72
2021/09/12 14:57:45;;;;;;;12.90;6.40;;;;;;;;;;5071976;28;20045;-73
2021/09/12 15:00:51;;;;;;;9.07;6.05;;;;;;;;;;5071620;28;20045;-72
2021/09/12 15:03:57;;;;;;;11.50;6.18;;;;;;;;;;5072063;28;20040;-73
2021/09/12 15:07:03;;;;;;;6.93;6.20;;;;;;;;;;5071653;28;20414;-72
2021/09/12 15:10:18;;;;;;;7.47;5.82;;;;;;;;;;5071844;28;20032;-74
2021/09/12 15:13:24;;;;;;;6.57;5.50;;;;;;;;;;5071366;28;20511;-73
2021/09/12 15:16:31;;;;;;;6.60;5.60;;;;;;;;;;5071614;28;20033;-72
2021/09/12 15:19:36;;;;;;;8.35;5.60;;;;;;;;;;5071278;28;20056;-73
2021/09/12 15:22:41;;;;;;;6.60;5.03;;;;;;;;;;5071544;28;20037;-74
2021/09/12 15:25:49;;;;;;;7.60;5.25;;;;;;;;;;5071568;28;20048;-73
2021/09/12 15:28:57;;;;;;;8.65;5.78;;;;;;;;;;5071601;28;20044;-73
2021/09/12 15:32:03;;;;;;;6.43;5.05;;;;;;;;;;5071378;28;20052;-75
2021/09/12 15:35:08;;;;;;;7.50;5.43;;;;;;;;;;5071451;28;20036;-75
2021/09/12 15:38:13;;;;;;;8.43;5.00;;;;;;;;;;5071275;28;20037;-74
2021/09/12 15:41:18;;;;;;;7.53;5.35;;;;;;;;;;5071162;28;20380;-73
2021/09/12 15:44:24;;;;;;;8.43;5.00;;;;;;;;;;5070721;28;20036;-72
2021/09/12 15:47:38;;;;;;;7.30;5.43;;;;;;;;;;5071135;28;20036;-74
2021/09/12 15:50:48;;;;;;;11.30;9.40;;;;;;;;;;5071015;28;20487;-72
2021/09/12 15:53:54;;;;;;;8.75;5.40;;;;;;;;;;5071399;28;20163;-71
2021/09/12 15:56:59;;;;;;;6.10;4.78;;;;;;;;;;5070423;28;20036;-72
2021/09/12 16:00:06;;;;;;;10.70;4.80;;;;;;;;;;5071063;28;20040;-72
2021/09/12 16:03:18;;;;;;;10.13;5.20;;;;;;;;;;5071086;28;20029;-67
2021/09/12 16:06:23;;;;;;;7.00;5.03;;;;;;;;;;5071187;28;20040;-70
2021/09/12 16:09:28;;;;;;;9.38;5.15;;;;;;;;;;5071132;28;20048;-71
2021/09/12 16:12:33;;;;;;;11.63;4.70;;;;;;;;;;5070372;28;20377;-68
2021/09/12 16:15:37;;;;;;;11.25;4.68;;;;;;;;;;5070720;28;20032;-67
2021/09/12 16:18:41;;;;;;;8.65;4.90;;;;;;;;;;5070584;28;20210;-66
2021/09/12 16:21:46;;;;;;;9.82;5.97;;;;;;;;;;5070838;28;20048;-67
2021/09/12 16:24:50;;;;;;;8.07;5.30;;;;;;;;;;5070343;28;20036;-67
2021/09/12 16:27:55;;;;;;;8.38;5.30;;;;;;;;;;5070749;28;20044;-65
2021/09/12 16:31:00;;;;;;;5.28;4.78;;;;;;;;;;5070389;28;20476;-65
2021/09/12 16:34:05;;;;;;;9.48;4.90;;;;;;;;;;5070203;28;20041;-65
2021/09/12 16:37:09;;;;;;;8.27;5.15;;;;;;;;;;5070274;28;20036;-66
2021/09/12 16:40:15;;;;;;;9.52;5.97;;;;;;;;;;5070403;28;20059;-65
2021/09/12 16:43:23;;;;;;;7.50;6.25;;;;;;;;;;5070406;28;20032;-65
2021/09/12 16:46:49;;;;;;;9.85;5.88;;;;;;;;;;5070477;28;20041;-65
2021/09/12 16:49:53;;;;;;;9.25;5.82;;;;;;;;;;5070637;28;20036;-65
2021/09/12 16:52:58;;;;;;;12.43;6.13;;;;;;;;;;5070379;28;20036;-67
2021/09/12 16:56:02;;;;;;;6.85;5.57;;;;;;;;;;5071628;28;20378;-65
2021/09/12 16:59:07;;;;;;;8.30;6.43;;;;;;;;;;5073782;28;20036;-67
2021/09/12 17:02:12;;;;;;;10.65;5.93;;;;;;;;;;5074024;28;20378;-67
2021/09/12 17:05:16;;;;;;;11.05;5.35;;;;;;;;;;5073622;28;20491;-67
2021/09/12 17:08:20;;;;;;;6.65;5.22;;;;;;;;;;5033536;28;20673;-67
2021/09/12 17:11:25;;;;;;;12.10;4.93;;;;;;;;;;5033773;28;20037;-66
2021/09/12 17:14:30;;;;;;;11.50;5.53;;;;;;;;;;5033221;28;20048;-66
2021/09/12 17:17:34;;;;;;;12.80;5.78;;;;;;;;;;5033302;28;20052;-66
2021/09/12 17:20:38;;;;;;;15.95;6.07;;;;;;;;;;5033324;28;20045;-66
2021/09/12 17:23:43;;;;;;;11.15;6.25;;;;;;;;;;5034267;28;20037;-67
2021/09/12 17:26:49;;;;;;;8.65;5.45;;;;;;;;;;5033336;28;20500;-67
2021/09/12 17:29:54;;;;;;;13.68;6.00;;;;;;;;;;5033212;28;20038;-67
2021/09/12 17:33:00;;;;;;;10.75;5.93;;;;;;;;;;5033288;28;20064;-67
2021/09/12 17:36:04;;;;;;;9.45;5.43;;;;;;;;;;5033210;28;20045;-67
2021/09/12 17:39:08;;;;;;;9.50;5.72;;;;;;;;;;5033228;28;20034;-67
2021/09/12 17:42:12;;;;;;;12.98;6.82;;;;;;;;;;5032513;28;20041;-67
2021/09/12 17:45:16;;;;;;;14.52;6.40;;;;;;;;;;5032650;28;20030;-67
2021/09/12 17:48:20;;;;;;;10.40;5.22;;;;;;;;;;5032803;28;20048;-66
2021/09/12 17:51:25;;;;;;;24.88;6.30;;;;;;;;;;5032819;28;20060;-67
2021/09/12 17:54:29;;;;;;;14.40;6.13;;;;;;;;;;5032569;28;20391;-67
2021/09/12 17:57:33;;;;;;;11.40;5.93;;;;;;;;;;5032490;28;20049;-66
2021/09/12 18:00:38;;;;;;;16.25;6.85;;;;;;;;;;5032606;28;20041;-67
2021/09/12 18:03:42;;;;;;;12.15;6.25;;;;;;;;;;5032140;28;20033;-67
2021/09/12 18:06:46;;;;;;;9.35;6.45;;;;;;;;;;5047713;28;20059;-66
2021/09/12 18:09:50;;;;;;;14.43;6.25;;;;;;;;;;5072232;28;20037;-67
2021/09/12 18:12:55;;;;;;;13.52;7.47;;;;;;;;;;5072031;28;20049;-66
2021/09/12 18:15:59;;;;;;;11.90;6.85;;;;;;;;;;5071953;28;20037;-66